메인 페이지
METAR-TAF:

METAR-TAF

공항 :

로스앤젤레스 국제공항

로스앤젤레스, 캘리포니아, 미국

위도: 33-56-17N, 경도: 118-23-20W, 고도: 38m

현재 날씨관측

예보는 13분 전, 15:53시(UTC)에 발표되었습니다.
남남동3kt
온도 19°C
습도 78%
기압 1010 hPa
시정: 9.7km
고도 900ft 상공 구름 조금
고도 1500ft 상공 구름 많음
연무

METAR: KLAX 201553Z 16003KT 6SM HZ FEW009 BKN015 19/15 A2983 RMK AO2 SLP101 T01940150 $

시각: 09:06 (16:06 UTC)

예보

예보는 1 시간 25분 전, 14:41시(UTC)에 발표되었습니다.
예보 대상 시간: 20일 15시부터 21일 18시까지 (UTC)
여러 방향의 바람 3kt
시정: 10km
고도 1200ft 상공 흐림
20일 1700시부터 (UTC)
서남서6kt
시정: 10km
고도 2000ft 상공 구름 보통
20일 1900시부터 (UTC)
서남서12kt
시정: 10km
맑음
21일 0600시부터 (UTC)
서남서6kt
시정: 10km
맑음
21일 1200시부터 (UTC)
여러 방향의 바람 3kt
시정: 10km
고도 1800ft 상공 구름 많음
21일 1700시부터 (UTC)
서남서6kt
시정: 10km
고도 2000ft 상공 구름 보통

TAF: KLAX 201441Z 2015/2118 VRB03KT P6SM OVC012 FM201700 25006KT P6SM SCT020 FM201900 25012KT P6SM SKC FM210600 25006KT P6SM SKC FM211200 VRB03KT P6SM BKN018 FM211700 25006KT P6SM SCT020

4,000개 이상의 공항 관측 자료 및 예보 (METAR 및 TAF 보고).

지도상에서 검색 가능한 기상관측소가 노란 점과 빨간 점으로 표시되어 있습니다.

기상관측소 명을 보려면 표시 위로 마우스를 이동하세요.

날씨 관측과 예보를 보려면 클릭하세요.

지도 변경 : 확대하려면 엑스 표시가 있는 녹색 버튼, 축소하려면 빼기 표시가 있는 녹색 버튼, 다음 페이지의 지도를 보려면 녹색 화살표를 클릭하세요.


METAR-TAF: